Time;durP1;ratioP1;P1;durP2;ratioP2;P2;SDS_P1;SDS_P2;PMS_P1;PMS_P2;Temp;Humidity;BMP_temperature;BMP_pressure;BME280_temperature;BME280_humidity;BME280_pressure;Samples;Min_cycle;Max_cycle;Signal;HPM_P1;HPM_P2
2023/07/30 00:01:15;;;;;;;;;;;27.20;68.60;;;;;;5043058;28;42931;-87
2023/07/30 00:03:40;;;;;;;;;;;27.10;68.80;;;;;;5043110;28;42913;-92
2023/07/30 00:06:06;;;;;;;;;;;27.10;68.90;;;;;;5043748;28;43062;-91
2023/07/30 00:08:31;;;;;;;;;;;27.20;69.50;;;;;;5036679;28;44278;-81
2023/07/30 00:10:58;;;;;;;;;;;26.40;69.10;;;;;;5040327;28;42964;-92
2023/07/30 00:13:23;;;;;;;;;;;27.20;70.10;;;;;;5043481;28;43384;-87
2023/07/30 00:15:49;;;;;;;;;;;27.20;69.90;;;;;;5043493;28;43061;-89
2023/07/30 00:18:15;;;;;;;;;;;27.20;70.30;;;;;;5043118;28;43313;-90
2023/07/30 00:20:40;;;;;;;;;;;27.10;71.10;;;;;;5040272;28;43170;-89
2023/07/30 00:23:06;;;;;;;;;;;27.10;71.70;;;;;;5043348;28;43410;-89
2023/07/30 00:25:31;;;;;;;;;;;27.00;72.00;;;;;;5046639;28;43042;-82
2023/07/30 00:27:57;;;;;;;;;;;27.00;72.00;;;;;;5045684;28;43350;-92
2023/07/30 00:30:22;;;;;;;;;;;27.00;71.80;;;;;;5047387;28;42911;-93
2023/07/30 00:32:48;;;;;;;;;;;27.00;71.00;;;;;;5046003;28;42905;-82
2023/07/30 00:35:13;;;;;;;;;;;27.00;70.40;;;;;;5045050;28;43075;-81
2023/07/30 00:37:39;;;;;;;;;;;26.90;69.10;;;;;;5046625;28;42935;-91
2023/07/30 00:40:05;;;;;;;;;;;26.90;68.80;;;;;;5046476;28;43257;-87
2023/07/30 00:42:30;;;;;;;;;;;26.90;68.60;;;;;;5046287;28;43006;-88
2023/07/30 00:44:56;;;;;;;;;;;26.80;68.30;;;;;;5046469;28;43623;-90
2023/07/30 00:47:21;;;;;;;;;;;26.80;68.50;;;;;;5046546;28;42905;-81
2023/07/30 00:49:47;;;;;;;;;;;26.70;68.40;;;;;;5046681;28;42888;-93
2023/07/30 00:52:13;;;;;;;;;;;26.60;68.80;;;;;;5046114;28;43756;-83
2023/07/30 00:54:39;;;;;;;;;;;26.50;69.10;;;;;;5046498;28;43060;-92
2023/07/30 00:57:06;;;;;;;;;;;26.50;69.60;;;;;;5046660;28;43284;-85
2023/07/30 00:59:32;;;;;;;;;;;26.40;70.00;;;;;;5046785;28;42921;-89
2023/07/30 01:01:58;;;;;;;;;;;26.50;70.30;;;;;;5046868;28;42941;-93
2023/07/30 01:04:24;;;;;;;;;;;26.50;70.70;;;;;;5047040;28;43023;-93
2023/07/30 01:06:49;;;;;;;;;;;26.50;71.20;;;;;;5046151;28;44111;-84
2023/07/30 01:09:15;;;;;;;;;;;26.60;71.30;;;;;;5045108;28;42864;-90
2023/07/30 01:11:41;;;;;;;;;;;26.60;71.00;;;;;;5045325;28;42922;-81
2023/07/30 01:14:07;;;;;;;;;;;26.60;70.80;;;;;;5046209;28;42994;-81
2023/07/30 01:16:33;;;;;;;;;;;26.70;70.80;;;;;;5046189;28;42891;-92
2023/07/30 01:19:00;;;;;;;;;;;26.60;70.70;;;;;;5045614;28;42836;-92
2023/07/30 01:21:26;;;;;;;;;;;26.60;70.60;;;;;;5045686;28;44629;-82
2023/07/30 01:23:51;;;;;;;;;;;26.60;70.40;;;;;;5046533;28;43041;-92
2023/07/30 01:26:22;;;;;;;;;;;26.60;70.00;;;;;;5045717;28;43061;-91
2023/07/30 01:28:51;;;;;;;;;;;26.60;69.80;;;;;;5045554;28;42920;-91
2023/07/30 01:31:17;;;;;;;;;;;26.60;69.30;;;;;;5045167;28;42911;-90
2023/07/30 01:33:46;;;;;;;;;;;26.70;69.80;;;;;;5045234;28;42961;-90
2023/07/30 01:36:13;;;;;;;;;;;26.00;69.60;;;;;;5044515;28;43912;-89
2023/07/30 01:38:39;;;;;;;;;;;26.70;70.10;;;;;;5044067;28;43033;-88
2023/07/30 01:41:05;;;;;;;;;;;26.50;70.50;;;;;;5045504;28;43016;-83
2023/07/30 01:43:31;;;;;;;;;;;26.50;71.00;;;;;;5045195;28;43204;-88
2023/07/30 01:45:56;;;;;;;;;;;26.50;71.70;;;;;;5044581;28;43029;-88
2023/07/30 01:48:22;;;;;;;;;;;26.50;71.60;;;;;;5043175;28;43095;-90
2023/07/30 01:50:48;;;;;;;;;;;26.50;71.60;;;;;;5044815;28;43454;-81
2023/07/30 01:53:14;;;;;;;;;;;26.50;71.40;;;;;;5044937;28;42851;-86
2023/07/30 01:55:43;;;;;;;;;;;26.50;70.90;;;;;;5044576;28;43154;-87
2023/07/30 01:58:09;;;;;;;;;;;26.50;71.00;;;;;;5045364;28;43234;-89
2023/07/30 02:00:34;;;;;;;;;;;26.50;70.80;;;;;;5045200;28;43620;-91
2023/07/30 02:03:02;;;;;;;;;;;26.40;70.80;;;;;;5044505;28;60659;-88
2023/07/30 02:05:28;;;;;;;;;;;26.40;71.00;;;;;;5045261;28;43283;-85
2023/07/30 02:07:53;;;;;;;;;;;26.40;71.00;;;;;;5045469;28;42984;-83
2023/07/30 02:10:19;;;;;;;;;;;26.40;71.30;;;;;;5045190;28;42869;-89
2023/07/30 02:12:44;;;;;;;;;;;26.40;70.30;;;;;;5045400;28;43096;-81
2023/07/30 02:15:10;;;;;;;;;;;26.40;71.00;;;;;;5045290;28;43663;-89
2023/07/30 02:17:35;;;;;;;;;;;26.50;71.00;;;;;;5045523;28;43054;-92
2023/07/30 02:20:01;;;;;;;;;;;26.40;71.00;;;;;;5045228;28;43014;-89
2023/07/30 02:22:26;;;;;;;;;;;26.50;70.60;;;;;;5045158;28;43036;-81
2023/07/30 02:24:52;;;;;;;;;;;26.50;70.40;;;;;;5044736;28;43915;-91
2023/07/30 02:27:17;;;;;;;;;;;26.50;70.40;;;;;;5044695;28;43134;-90
2023/07/30 02:29:43;;;;;;;;;;;26.50;70.40;;;;;;5043890;28;43561;-86
2023/07/30 02:32:08;;;;;;;;;;;26.50;70.60;;;;;;5044555;28;42978;-84
2023/07/30 02:34:34;;;;;;;;;;;26.50;70.40;;;;;;5044235;28;42888;-87
2023/07/30 02:36:59;;;;;;;;;;;26.50;70.60;;;;;;5044847;28;42974;-85
2023/07/30 02:39:25;;;;;;;;;;;26.50;70.60;;;;;;5031398;28;43617;-85
2023/07/30 02:41:50;;;;;;;;;;;26.50;70.60;;;;;;5044834;28;43058;-88
2023/07/30 02:44:16;;;;;;;;;;;26.40;70.50;;;;;;5044592;28;42956;-84
2023/07/30 02:46:41;;;;;;;;;;;26.50;70.60;;;;;;5043026;28;43000;-89
2023/07/30 02:49:08;;;;;;;;;;;26.40;70.50;;;;;;5044286;28;43780;-87
2023/07/30 02:51:34;;;;;;;;;;;26.40;70.80;;;;;;5044675;28;42993;-82
2023/07/30 02:54:03;;;;;;;;;;;26.40;71.00;;;;;;5044609;28;44151;-82
2023/07/30 02:56:29;;;;;;;;;;;26.40;70.70;;;;;;5042753;28;42916;-80
2023/07/30 02:58:54;;;;;;;;;;;26.30;70.70;;;;;;5043659;28;43053;-88
2023/07/30 03:01:20;;;;;;;;;;;26.30;70.60;;;;;;5044037;28;43062;-88
2023/07/30 03:03:45;;;;;;;;;;;26.30;70.90;;;;;;5043763;28;43204;-87
2023/07/30 03:06:11;;;;;;;;;;;26.30;70.90;;;;;;5044496;28;43034;-88
2023/07/30 03:08:37;;;;;;;;;;;26.30;70.80;;;;;;5044168;28;42875;-86
2023/07/30 03:11:02;;;;;;;;;;;26.20;70.80;;;;;;5043373;28;43021;-85
2023/07/30 03:13:28;;;;;;;;;;;26.10;70.80;;;;;;5042716;28;42943;-90
2023/07/30 03:15:53;;;;;;;;;;;26.10;70.70;;;;;;5043242;28;42951;-90
2023/07/30 03:18:19;;;;;;;;;;;26.10;70.40;;;;;;5043086;28;43393;-88
2023/07/30 03:20:44;;;;;;;;;;;26.10;70.50;;;;;;5044221;28;42989;-83
2023/07/30 03:23:09;;;;;;;;;;;26.10;70.20;;;;;;5041997;28;44289;-86
2023/07/30 03:25:35;;;;;;;;;;;26.10;70.20;;;;;;5042584;28;43061;-84
2023/07/30 03:28:00;;;;;;;;;;;24.20;68.80;;;;;;5043214;28;43816;-85
2023/07/30 03:30:26;;;;;;;;;;;26.20;70.00;;;;;;5042166;28;42979;-86
2023/07/30 03:32:51;;;;;;;;;;;26.20;69.50;;;;;;5043075;28;43165;-82
2023/07/30 03:35:17;;;;;;;;;;;26.20;69.50;;;;;;5044019;28;42890;-87
2023/07/30 03:37:42;;;;;;;;;;;26.20;69.50;;;;;;5043442;28;43564;-84
2023/07/30 03:40:08;;;;;;;;;;;26.10;69.50;;;;;;5043563;28;43038;-82
2023/07/30 03:42:34;;;;;;;;;;;26.10;69.40;;;;;;5043772;28;42955;-85
2023/07/30 03:44:59;;;;;;;;;;;26.00;69.40;;;;;;5044275;28;43418;-82
2023/07/30 03:47:25;;;;;;;;;;;26.00;69.50;;;;;;5043589;28;43681;-87
2023/07/30 03:49:50;;;;;;;;;;;25.90;68.30;;;;;;5043893;28;42912;-84
2023/07/30 03:52:17;;;;;;;;;;;25.90;69.00;;;;;;5042751;28;43668;-87
2023/07/30 03:54:42;;;;;;;;;;;25.90;69.50;;;;;;5043536;28;43200;-82
2023/07/30 03:57:08;;;;;;;;;;;25.80;69.80;;;;;;5043114;28;43490;-81
2023/07/30 03:59:33;;;;;;;;;;;25.80;69.40;;;;;;5046526;28;42982;-89
2023/07/30 04:01:59;;;;;;;;;;;26.00;68.80;;;;;;5046476;28;43449;-81
2023/07/30 04:04:24;;;;;;;;;;;25.90;68.50;;;;;;5047129;28;42767;-89
2023/07/30 04:06:50;;;;;;;;;;;25.90;68.40;;;;;;5045464;28;43621;-86
2023/07/30 04:09:15;;;;;;;;;;;25.90;70.00;;;;;;5047612;28;42804;-87
2023/07/30 04:11:41;;;;;;;;;;;25.90;68.70;;;;;;5044612;28;44476;-84
2023/07/30 04:14:08;;;;;;;;;;;25.90;68.40;;;;;;5046211;28;43041;-87
2023/07/30 04:16:34;;;;;;;;;;;25.90;67.90;;;;;;5044862;28;44382;-85
2023/07/30 04:19:00;;;;;;;;;;;25.90;68.60;;;;;;5045999;28;42930;-87
2023/07/30 04:21:25;;;;;;;;;;;25.90;70.30;;;;;;5046418;28;43451;-87
2023/07/30 04:23:51;;;;;;;;;;;25.50;69.00;;;;;;5040264;28;43044;-88
2023/07/30 04:26:17;;;;;;;;;;;25.80;68.60;;;;;;5041835;28;42974;-87
2023/07/30 04:28:42;;;;;;;;;;;25.90;68.70;;;;;;5057281;28;42933;-87
2023/07/30 04:31:07;;;;;;;;;;;26.00;68.60;;;;;;5044116;28;42984;-88
2023/07/30 04:33:33;;;;;;;;;;;26.00;68.60;;;;;;5041459;28;43195;-87
2023/07/30 04:35:58;;;;;;;;;;;25.90;68.60;;;;;;5034288;28;43574;-88
2023/07/30 04:38:24;;;;;;;;;;;25.90;69.00;;;;;;5046079;28;43002;-81
2023/07/30 04:40:50;;;;;;;;;;;25.90;69.30;;;;;;5038320;28;43637;-80
2023/07/30 04:43:15;;;;;;;;;;;25.90;69.20;;;;;;5044416;28;42973;-79
2023/07/30 04:45:42;;;;;;;;;;;25.90;69.00;;;;;;5041471;28;43503;-84
2023/07/30 04:48:07;;;;;;;;;;;25.90;69.00;;;;;;5045232;28;43014;-87
2023/07/30 04:50:33;;;;;;;;;;;25.80;68.90;;;;;;5045679;28;43014;-79
2023/07/30 04:52:58;;;;;;;;;;;25.80;69.10;;;;;;5044577;28;42881;-82
2023/07/30 04:55:24;;;;;;;;;;;25.80;69.40;;;;;;5041486;28;43601;-87
2023/07/30 04:57:49;;;;;;;;;;;25.80;71.70;;;;;;5037610;28;42999;-86
2023/07/30 05:00:15;;;;;;;;;;;25.70;69.60;;;;;;5044797;28;42935;-89
2023/07/30 05:02:40;;;;;;;;;;;25.70;70.00;;;;;;5045081;28;42924;-88
2023/07/30 05:05:06;;;;;;;;;;;25.70;70.00;;;;;;5044866;28;43629;-87
2023/07/30 05:07:31;;;;;;;;;;;25.80;69.80;;;;;;5036114;28;42991;-88
2023/07/30 05:09:57;;;;;;;;;;;25.80;69.50;;;;;;5044178;28;43789;-80
2023/07/30 05:12:23;;;;;;;;;;;25.80;68.90;;;;;;5043561;28;44170;-89
2023/07/30 05:14:48;;;;;;;;;;;25.90;68.80;;;;;;5042759;28;45296;-87
2023/07/30 05:17:14;;;;;;;;;;;25.90;68.70;;;;;;5041190;28;42992;-84
2023/07/30 05:19:39;;;;;;;;;;;25.90;69.90;;;;;;5041751;28;44966;-82
2023/07/30 05:22:07;;;;;;;;;;;25.90;70.20;;;;;;5045759;28;43269;-82
2023/07/30 05:24:33;;;;;;;;;;;26.00;69.70;;;;;;5041894;28;42970;-80
2023/07/30 05:26:59;;;;;;;;;;;25.90;68.60;;;;;;5037158;28;43086;-87
2023/07/30 05:29:24;;;;;;;;;;;25.90;69.10;;;;;;5044485;28;43095;-81
2023/07/30 05:31:50;;;;;;;;;;;25.90;69.30;;;;;;5044915;28;42991;-82
2023/07/30 05:34:15;;;;;;;;;;;25.90;69.10;;;;;;5043041;28;43645;-81
2023/07/30 05:36:41;;;;;;;;;;;26.00;68.90;;;;;;5033321;28;43086;-84
2023/07/30 05:39:06;;;;;;;;;;;26.00;69.00;;;;;;5035416;28;43081;-89
2023/07/30 05:41:32;;;;;;;;;;;26.00;69.00;;;;;;5043857;28;42951;-88
2023/07/30 05:43:57;;;;;;;;;;;25.90;68.90;;;;;;5044662;28;43425;-88
2023/07/30 05:46:23;;;;;;;;;;;25.90;68.90;;;;;;5044565;28;43082;-88
2023/07/30 05:48:48;;;;;;;;;;;26.00;68.90;;;;;;5043613;28;42757;-79
2023/07/30 05:51:14;;;;;;;;;;;26.00;68.30;;;;;;5041076;28;43075;-82
2023/07/30 05:53:39;;;;;;;;;;;25.90;68.90;;;;;;5043599;28;44016;-80
2023/07/30 05:56:05;;;;;;;;;;;26.00;68.80;;;;;;5040576;28;42923;-87
2023/07/30 05:58:30;;;;;;;;;;;26.00;68.00;;;;;;5042691;28;43045;-81
2023/07/30 06:00:56;;;;;;;;;;;25.90;69.70;;;;;;5040159;28;43051;-86
2023/07/30 06:03:22;;;;;;;;;;;26.10;68.60;;;;;;5040543;28;45481;-86
2023/07/30 06:05:48;;;;;;;;;;;26.10;68.70;;;;;;5038152;28;43184;-81
2023/07/30 06:08:13;;;;;;;;;;;26.30;67.50;;;;;;5035963;28;44441;-86
2023/07/30 06:10:40;;;;;;;;;;;26.20;67.70;;;;;;5041173;28;43025;-79
2023/07/30 06:13:05;;;;;;;;;;;26.20;67.60;;;;;;5042916;28;42939;-86
2023/07/30 06:15:32;;;;;;;;;;;26.30;67.60;;;;;;5039270;28;43039;-86
2023/07/30 06:17:57;;;;;;;;;;;26.30;67.60;;;;;;5036104;28;44347;-83
2023/07/30 06:20:23;;;;;;;;;;;26.30;67.70;;;;;;5042395;28;42943;-84
2023/07/30 06:22:48;;;;;;;;;;;26.30;67.90;;;;;;5043367;28;42860;-81
2023/07/30 06:25:14;;;;;;;;;;;26.30;68.20;;;;;;5044845;28;42983;-86
2023/07/30 06:27:39;;;;;;;;;;;26.40;68.20;;;;;;5043124;28;42958;-86
2023/07/30 06:30:05;;;;;;;;;;;26.40;68.10;;;;;;5043069;28;43147;-81
2023/07/30 06:32:30;;;;;;;;;;;26.40;68.40;;;;;;5036928;28;43039;-88
2023/07/30 06:34:56;;;;;;;;;;;26.40;68.30;;;;;;5039189;28;42998;-87
2023/07/30 06:37:21;;;;;;;;;;;26.40;69.30;;;;;;5042123;28;43938;-82
2023/07/30 06:39:47;;;;;;;;;;;26.40;69.40;;;;;;5041104;28;42998;-79
2023/07/30 06:42:12;;;;;;;;;;;26.30;69.80;;;;;;5043703;28;43558;-86
2023/07/30 06:44:38;;;;;;;;;;;26.40;70.10;;;;;;5044667;28;43152;-83
2023/07/30 06:47:03;;;;;;;;;;;26.40;70.10;;;;;;5043066;28;43018;-90
2023/07/30 06:49:29;;;;;;;;;;;26.40;70.30;;;;;;5039207;28;42942;-90
2023/07/30 06:51:55;;;;;;;;;;;26.40;71.40;;;;;;5028879;28;43007;-91
2023/07/30 06:54:20;;;;;;;;;;;26.50;70.70;;;;;;5041471;28;42942;-88
2023/07/30 06:56:46;;;;;;;;;;;26.40;70.70;;;;;;5043549;28;43803;-91
2023/07/30 06:59:11;;;;;;;;;;;26.50;70.60;;;;;;5043083;28;42943;-91
2023/07/30 07:01:37;;;;;;;;;;;26.40;70.70;;;;;;5039128;28;44116;-89
2023/07/30 07:04:02;;;;;;;;;;;26.40;70.40;;;;;;5042302;28;43133;-89
2023/07/30 07:06:28;;;;;;;;;;;26.50;70.50;;;;;;5043813;28;44023;-87
2023/07/30 07:08:53;;;;;;;;;;;26.50;70.70;;;;;;5042793;28;42978;-90
2023/07/30 07:11:19;;;;;;;;;;;26.50;70.40;;;;;;5041730;28;45487;-89
2023/07/30 07:13:44;;;;;;;;;;;26.50;70.20;;;;;;5041220;28;42986;-89
2023/07/30 07:16:10;;;;;;;;;;;26.60;70.20;;;;;;5038044;28;43028;-85
2023/07/30 07:18:35;;;;;;;;;;;26.60;69.90;;;;;;5038612;28;43070;-84
2023/07/30 07:21:01;;;;;;;;;;;26.60;70.00;;;;;;5040561;28;43497;-84
2023/07/30 07:23:26;;;;;;;;;;;26.60;70.60;;;;;;5031487;28;43116;-82
2023/07/30 07:25:52;;;;;;;;;;;26.60;69.90;;;;;;5035234;28;42951;-82
2023/07/30 07:28:18;;;;;;;;;;;26.60;69.80;;;;;;5046893;28;43038;-81
2023/07/30 07:30:44;;;;;;;;;;;26.70;69.80;;;;;;5032042;28;43478;-82
2023/07/30 07:33:12;;;;;;;;;;;26.70;69.60;;;;;;5035403;28;42993;-81
2023/07/30 07:35:41;;;;;;;;;;;26.70;69.30;;;;;;5039206;28;43649;-82
2023/07/30 07:38:06;;;;;;;;;;;26.70;68.80;;;;;;5040081;28;43040;-82
2023/07/30 07:40:41;;;;;;;;;;;26.80;68.90;;;;;;5039911;28;43554;-82
2023/07/30 07:43:07;;;;;;;;;;;26.80;68.90;;;;;;5051434;28;42938;-82
2023/07/30 07:45:32;;;;;;;;;;;26.70;68.90;;;;;;5024945;28;43403;-82
2023/07/30 07:47:58;;;;;;;;;;;26.70;69.50;;;;;;5041691;28;43181;-81
2023/07/30 07:50:23;;;;;;;;;;;26.70;69.40;;;;;;5034410;28;43706;-81
2023/07/30 07:52:49;;;;;;;;;;;26.70;69.30;;;;;;5038938;28;42987;-80
2023/07/30 07:55:14;;;;;;;;;;;26.70;69.20;;;;;;5041770;28;42973;-81
2023/07/30 07:57:40;;;;;;;;;;;26.70;69.00;;;;;;5043401;28;43137;-81
2023/07/30 08:00:06;;;;;;;;;;;26.70;68.80;;;;;;5031551;28;43231;-81
2023/07/30 08:02:32;;;;;;;;;;;26.80;68.70;;;;;;5028497;28;43208;-81
2023/07/30 08:04:57;;;;;;;;;;;26.80;68.70;;;;;;5034734;28;42945;-81
2023/07/30 08:07:23;;;;;;;;;;;26.80;68.40;;;;;;5041674;28;44512;-81
2023/07/30 08:09:49;;;;;;;;;;;26.80;68.30;;;;;;5035990;28;43041;-80
2023/07/30 08:12:14;;;;;;;;;;;26.80;68.50;;;;;;5043311;28;43041;-80
2023/07/30 08:14:40;;;;;;;;;;;26.90;68.10;;;;;;5049000;28;43695;-82
2023/07/30 08:17:05;;;;;;;;;;;26.90;68.10;;;;;;5037374;28;42923;-81
2023/07/30 08:19:31;;;;;;;;;;;26.90;68.40;;;;;;5050928;28;42952;-82
2023/07/30 08:21:58;;;;;;;;;;;26.90;68.60;;;;;;5033880;28;42983;-84
2023/07/30 08:24:23;;;;;;;;;;;26.90;68.30;;;;;;5043996;28;44303;-81
2023/07/30 08:26:49;;;;;;;;;;;26.90;68.30;;;;;;5041538;28;42980;-83
2023/07/30 08:29:14;;;;;;;;;;;26.90;68.30;;;;;;5043085;28;43822;-81
2023/07/30 08:31:41;;;;;;;;;;;26.90;68.20;;;;;;5036904;28;43571;-84
2023/07/30 08:34:06;;;;;;;;;;;26.90;68.00;;;;;;5055541;28;43400;-83
2023/07/30 08:36:32;;;;;;;;;;;26.90;68.20;;;;;;5043467;28;42995;-88
2023/07/30 08:38:57;;;;;;;;;;;26.80;68.00;;;;;;5041477;28;43007;-83
2023/07/30 08:41:23;;;;;;;;;;;26.90;68.10;;;;;;5034791;28;42944;-79
2023/07/30 08:43:48;;;;;;;;;;;26.90;68.10;;;;;;5039691;28;42905;-81
2023/07/30 08:46:17;;;;;;;;;;;26.90;67.80;;;;;;5041120;28;42967;-82
2023/07/30 08:48:42;;;;;;;;;;;26.90;67.80;;;;;;5037584;28;42999;-80
2023/07/30 08:51:08;;;;;;;;;;;26.90;67.80;;;;;;5038690;28;43183;-82
2023/07/30 08:53:34;;;;;;;;;;;26.90;67.80;;;;;;5045870;28;43019;-79
2023/07/30 08:56:00;;;;;;;;;;;26.90;67.60;;;;;;5045945;28;42973;-81
2023/07/30 08:58:26;;;;;;;;;;;27.00;67.60;;;;;;5045435;28;43687;-83
2023/07/30 09:00:53;;;;;;;;;;;27.00;67.30;;;;;;5046342;28;42949;-83
2023/07/30 09:03:19;;;;;;;;;;;26.90;67.30;;;;;;5046111;28;42860;-82
2023/07/30 09:05:45;;;;;;;;;;;26.90;67.20;;;;;;5046202;28;43062;-83
2023/07/30 09:08:11;;;;;;;;;;;27.00;67.40;;;;;;5046000;28;42969;-83
2023/07/30 09:10:36;;;;;;;;;;;26.90;67.30;;;;;;5046603;28;43014;-83
2023/07/30 09:13:02;;;;;;;;;;;27.00;67.30;;;;;;5045977;28;43726;-83
2023/07/30 09:15:38;;;;;;;;;;;27.00;67.40;;;;;;5044216;28;43107;-83
2023/07/30 09:18:06;;;;;;;;;;;27.00;66.80;;;;;;5045208;28;43049;-84
2023/07/30 09:20:38;;;;;;;;;;;27.00;66.70;;;;;;5045822;28;43039;-82
2023/07/30 09:23:04;;;;;;;;;;;27.00;66.40;;;;;;5046129;28;42946;-83
2023/07/30 09:25:30;;;;;;;;;;;27.00;66.50;;;;;;5045976;28;43082;-84
2023/07/30 09:27:56;;;;;;;;;;;26.90;66.70;;;;;;5044801;28;43042;-82
2023/07/30 09:30:23;;;;;;;;;;;27.00;66.50;;;;;;5045974;28;43058;-82
2023/07/30 09:32:53;;;;;;;;;;;27.10;66.00;;;;;;5032148;28;44642;-83
2023/07/30 09:35:19;;;;;;;;;;;27.00;65.70;;;;;;5040657;28;43121;-82
2023/07/30 09:37:45;;;;;;;;;;;27.00;65.90;;;;;;5043276;28;42942;-83
2023/07/30 09:40:14;;;;;;;;;;;27.00;65.70;;;;;;5040594;28;43022;-84
2023/07/30 09:42:43;;;;;;;;;;;27.00;65.00;;;;;;5037970;28;43781;-81
2023/07/30 09:45:16;;;;;;;;;;;27.30;65.30;;;;;;5042520;28;42997;-82
2023/07/30 09:47:46;;;;;;;;;;;27.00;65.20;;;;;;5040479;28;43579;-82
2023/07/30 09:50:11;;;;;;;;;;;27.00;64.60;;;;;;5040192;28;43057;-82
2023/07/30 09:52:38;;;;;;;;;;;27.00;65.50;;;;;;5044810;28;43542;-81
2023/07/30 09:55:05;;;;;;;;;;;27.00;65.00;;;;;;5046428;28;43107;-82
2023/07/30 09:57:31;;;;;;;;;;;24.90;63.30;;;;;;5040459;28;45913;-82
2023/07/30 09:59:56;;;;;;;;;;;26.10;64.80;;;;;;5044630;28;42900;-82
2023/07/30 10:02:24;;;;;;;;;;;27.10;64.90;;;;;;5045024;28;43573;-85
2023/07/30 10:04:50;;;;;;;;;;;27.10;64.90;;;;;;5044680;28;43103;-81
2023/07/30 10:07:18;;;;;;;;;;;27.10;64.80;;;;;;5045300;28;43589;-80
2023/07/30 10:09:45;;;;;;;;;;;27.10;64.80;;;;;;5045753;28;43069;-81
2023/07/30 10:12:13;;;;;;;;;;;27.00;64.50;;;;;;5039851;28;44508;-82
2023/07/30 10:14:39;;;;;;;;;;;27.10;64.50;;;;;;5043210;28;43033;-81
2023/07/30 10:17:05;;;;;;;;;;;27.10;64.40;;;;;;5051267;28;44185;-81
2023/07/30 10:19:31;;;;;;;;;;;27.10;64.40;;;;;;5038293;28;43045;-79
2023/07/30 10:21:59;;;;;;;;;;;27.10;64.40;;;;;;5042274;28;43818;-81
2023/07/30 10:24:25;;;;;;;;;;;27.10;64.20;;;;;;5029872;28;43578;-82
2023/07/30 10:26:52;;;;;;;;;;;27.10;64.10;;;;;;5043761;28;43735;-82
2023/07/30 10:29:19;;;;;;;;;;;27.10;64.00;;;;;;5049787;28;42927;-82
2023/07/30 10:31:57;;;;;;;;;;;27.10;63.80;;;;;;5046066;28;44401;-82
2023/07/30 10:34:27;;;;;;;;;;;27.10;63.70;;;;;;5046815;28;43002;-82
2023/07/30 10:36:55;;;;;;;;;;;27.10;63.80;;;;;;5046967;28;42959;-83
2023/07/30 10:39:25;;;;;;;;;;;27.10;63.80;;;;;;5043748;28;43003;-82
2023/07/30 10:41:51;;;;;;;;;;;27.10;63.30;;;;;;5043457;28;44054;-83
2023/07/30 10:44:27;;;;;;;;;;;27.10;64.10;;;;;;5044343;28;42818;-82
2023/07/30 10:46:53;;;;;;;;;;;27.10;63.80;;;;;;5042933;28;45354;-83
2023/07/30 10:49:19;;;;;;;;;;;27.10;63.70;;;;;;5043949;28;43067;-83
2023/07/30 10:51:44;;;;;;;;;;;27.10;64.20;;;;;;5043647;28;43743;-82
2023/07/30 10:54:10;;;;;;;;;;;27.10;64.90;;;;;;5043480;28;43105;-82
2023/07/30 10:56:37;;;;;;;;;;;27.10;64.60;;;;;;5043876;28;43414;-82
2023/07/30 10:59:03;;;;;;;;;;;27.10;63.20;;;;;;5042734;28;43027;-83
2023/07/30 11:01:29;;;;;;;;;;;27.10;64.00;;;;;;5044041;28;43254;-82
2023/07/30 11:03:54;;;;;;;;;;;27.10;63.90;;;;;;5047718;28;44125;-81
2023/07/30 11:06:24;;;;;;;;;;;27.10;64.60;;;;;;5046643;28;43735;-82
2023/07/30 11:08:49;;;;;;;;;;;27.10;64.10;;;;;;5047068;28;43062;-83
2023/07/30 11:11:15;;;;;;;;;;;27.10;64.40;;;;;;5047101;28;42950;-81
2023/07/30 11:13:41;;;;;;;;;;;27.10;63.10;;;;;;5058818;28;43069;-82
2023/07/30 11:16:07;;;;;;;;;;;27.20;64.10;;;;;;5048483;28;43092;-83
2023/07/30 11:18:36;;;;;;;;;;;27.20;63.90;;;;;;5043937;28;43233;-82
2023/07/30 11:21:16;;;;;;;;;;;27.20;63.40;;;;;;5041609;28;43435;-83
2023/07/30 11:23:42;;;;;;;;;;;27.20;63.30;;;;;;5042761;28;43076;-83
2023/07/30 11:26:08;;;;;;;;;;;27.20;63.60;;;;;;5042670;28;43095;-82
2023/07/30 11:28:34;;;;;;;;;;;27.20;63.30;;;;;;5042795;28;43113;-83
2023/07/30 11:31:21;;;;;;;;;;;27.30;63.60;;;;;;5042653;28;42928;-83
2023/07/30 11:33:47;;;;;;;;;;;27.20;63.40;;;;;;5042846;28;43088;-82
2023/07/30 11:36:17;;;;;;;;;;;27.20;63.20;;;;;;5042062;28;43605;-83
2023/07/30 11:38:43;;;;;;;;;;;27.20;63.10;;;;;;5041907;28;43131;-84
2023/07/30 11:41:09;;;;;;;;;;;27.20;63.10;;;;;;5041977;28;42914;-83
2023/07/30 11:43:39;;;;;;;;;;;27.40;63.40;;;;;;5041484;28;43552;-83
2023/07/30 11:46:10;;;;;;;;;;;27.20;63.20;;;;;;5041225;28;43640;-83
2023/07/30 11:48:36;;;;;;;;;;;27.20;63.20;;;;;;5037796;28;43087;-83
2023/07/30 11:51:02;;;;;;;;;;;27.20;63.60;;;;;;5038217;28;44344;-82
2023/07/30 11:53:47;;;;;;;;;;;27.20;63.20;;;;;;5040436;28;43019;-81
2023/07/30 11:56:16;;;;;;;;;;;27.20;63.20;;;;;;5037476;28;43076;-82
2023/07/30 11:58:41;;;;;;;;;;;27.10;63.00;;;;;;5042258;28;42984;-81
2023/07/30 12:01:07;;;;;;;;;;;27.20;63.20;;;;;;5040658;28;43522;-82
2023/07/30 12:03:32;;;;;;;;;;;27.20;63.10;;;;;;5048506;28;43002;-82
2023/07/30 12:06:04;;;;;;;;;;;27.20;62.80;;;;;;5040520;28;43018;-82
2023/07/30 12:08:29;;;;;;;;;;;27.20;62.60;;;;;;5046742;28;42943;-82
2023/07/30 12:10:56;;;;;;;;;;;27.20;63.00;;;;;;5040170;28;44847;-81
2023/07/30 12:13:22;;;;;;;;;;;27.20;63.00;;;;;;5053683;28;42929;-82
2023/07/30 12:15:52;;;;;;;;;;;27.30;62.90;;;;;;5042228;28;43900;-82
2023/07/30 12:18:17;;;;;;;;;;;27.30;62.80;;;;;;4996362;28;1866064;-81
2023/07/30 12:20:43;;;;;;;;;;;27.30;63.10;;;;;;5031704;28;44841;-82
2023/07/30 12:23:08;;;;;;;;;;;27.30;63.20;;;;;;5055583;28;43200;-81
2023/07/30 12:25:34;;;;;;;;;;;27.30;63.20;;;;;;5047488;28;42955;-82
2023/07/30 12:28:00;;;;;;;;;;;27.30;64.10;;;;;;5046965;28;43048;-81
2023/07/30 12:30:26;;;;;;;;;;;27.30;63.70;;;;;;5046438;28;43224;-81
2023/07/30 12:32:52;;;;;;;;;;;27.30;63.70;;;;;;5050827;28;43015;-82
2023/07/30 12:35:17;;;;;;;;;;;27.30;63.30;;;;;;5050995;28;43891;-82
2023/07/30 12:37:43;;;;;;;;;;;27.30;62.80;;;;;;5043679;28;43039;-81
2023/07/30 12:40:09;;;;;;;;;;;27.30;63.60;;;;;;5045735;28;43430;-81
2023/07/30 12:42:34;;;;;;;;;;;27.30;62.60;;;;;;5045831;28;42922;-81
2023/07/30 12:45:00;;;;;;;;;;;27.30;62.60;;;;;;5045001;28;45308;-82
2023/07/30 12:47:25;;;;;;;;;;;27.30;62.50;;;;;;5046148;28;43097;-82
2023/07/30 12:49:51;;;;;;;;;;;27.40;64.10;;;;;;5046722;28;43012;-81
2023/07/30 12:52:16;;;;;;;;;;;27.70;64.00;;;;;;5046411;28;42927;-86
2023/07/30 12:54:42;;;;;;;;;;;27.30;62.50;;;;;;5046203;28;42908;-82
2023/07/30 12:57:07;;;;;;;;;;;27.40;63.80;;;;;;5046837;28;42962;-81
2023/07/30 12:59:33;;;;;;;;;;;27.30;62.60;;;;;;5046107;28;43516;-82
2023/07/30 13:01:58;;;;;;;;;;;27.30;63.30;;;;;;5036008;28;42975;-80
2023/07/30 13:04:27;;;;;;;;;;;27.30;63.50;;;;;;5043477;28;43498;-79
2023/07/30 13:06:53;;;;;;;;;;;27.30;63.40;;;;;;5043535;28;43035;-80
2023/07/30 13:09:18;;;;;;;;;;;27.30;63.50;;;;;;5044106;28;43219;-80
2023/07/30 13:11:44;;;;;;;;;;;27.40;65.10;;;;;;5045758;28;42907;-80
2023/07/30 13:14:10;;;;;;;;;;;27.30;63.60;;;;;;5045878;28;43098;-80
2023/07/30 13:16:35;;;;;;;;;;;27.30;62.90;;;;;;5045945;28;43008;-81
2023/07/30 13:19:01;;;;;;;;;;;27.30;62.80;;;;;;5044658;28;42892;-79
2023/07/30 13:21:26;;;;;;;;;;;27.30;63.50;;;;;;5045343;28;42976;-81
2023/07/30 13:23:52;;;;;;;;;;;27.30;63.50;;;;;;5045162;28;43503;-82
2023/07/30 13:26:18;;;;;;;;;;;27.40;63.70;;;;;;5045322;28;43012;-80
2023/07/30 13:28:44;;;;;;;;;;;27.30;63.60;;;;;;5045178;28;43791;-79
2023/07/30 13:31:10;;;;;;;;;;;27.40;63.70;;;;;;5045758;28;43061;-78
2023/07/30 13:33:36;;;;;;;;;;;27.40;63.70;;;;;;5046098;28;42954;-79
2023/07/30 13:36:01;;;;;;;;;;;27.40;63.60;;;;;;5046277;28;42896;-79
2023/07/30 13:38:27;;;;;;;;;;;27.40;63.70;;;;;;5045891;28;43376;-79
2023/07/30 13:40:53;;;;;;;;;;;27.40;67.20;;;;;;5044021;28;43964;-80
2023/07/30 13:43:18;;;;;;;;;;;27.40;63.70;;;;;;5045471;28;42915;-80
2023/07/30 13:45:44;;;;;;;;;;;27.40;63.60;;;;;;5045059;28;42975;-81
2023/07/30 13:48:10;;;;;;;;;;;27.40;63.50;;;;;;5046110;28;43783;-81
2023/07/30 13:50:35;;;;;;;;;;;27.40;63.50;;;;;;5045675;28;42967;-82
2023/07/30 13:53:01;;;;;;;;;;;27.40;63.50;;;;;;5045446;28;43414;-81
2023/07/30 13:55:26;;;;;;;;;;;27.40;63.70;;;;;;5045720;28;42733;-81
2023/07/30 13:57:52;;;;;;;;;;;27.40;63.90;;;;;;5045858;28;42911;-80
2023/07/30 14:00:17;;;;;;;;;;;27.40;63.70;;;;;;5045189;28;42955;-80
2023/07/30 14:02:43;;;;;;;;;;;27.40;63.80;;;;;;5044746;28;43928;-80
2023/07/30 14:05:09;;;;;;;;;;;27.40;63.70;;;;;;5043392;28;43032;-81
2023/07/30 14:07:35;;;;;;;;;;;27.40;63.50;;;;;;5039742;28;42960;-81
2023/07/30 14:10:00;;;;;;;;;;;27.40;63.60;;;;;;5044747;28;43023;-81